Time;durP1;ratioP1;P1;durP2;ratioP2;P2;SDS_P1;SDS_P2;PMS_P1;PMS_P2;Temp;Humidity;BMP_temperature;BMP_pressure;BME280_temperature;BME280_humidity;BME280_pressure;Samples;Min_cycle;Max_cycle;Signal;HPM_P1;HPM_P2
2024/03/31 00:00:50;;;;;;;26.17;9.27;;;;;;;10.87;95.96;96507.00;4064034;29;20783;-83
2024/03/31 00:02:52;;;;;;;29.03;8.17;;;;;;;10.87;95.76;96518.25;4065541;29;20633;-83
2024/03/31 00:04:54;;;;;;;20.90;7.67;;;;;;;10.90;95.68;96515.34;4052141;29;21009;-83
2024/03/31 00:06:55;;;;;;;19.27;8.00;;;;;;;10.92;95.22;96521.25;4052005;29;20660;-83
2024/03/31 00:08:57;;;;;;;16.33;7.30;;;;;;;10.94;96.63;96537.56;4047915;29;20629;-83
2024/03/31 00:10:59;;;;;;;18.50;8.57;;;;;;;10.95;95.36;96541.81;4060744;29;20766;-83
2024/03/31 00:13:03;;;;;;;23.43;10.13;;;;;;;10.86;95.87;96532.25;4090938;28;21211;-83
2024/03/31 00:15:05;;;;;;;29.97;13.90;;;;;;;10.83;95.39;96535.16;4062446;29;20679;-83
2024/03/31 00:17:09;;;;;;;25.23;11.70;;;;;;;10.85;95.26;96541.06;4074611;29;20634;-83
2024/03/31 00:19:10;;;;;;;29.30;11.73;;;;;;;10.82;95.29;96541.34;4062100;29;20635;-83
2024/03/31 00:21:13;;;;;;;23.53;10.60;;;;;;;10.81;95.20;96538.88;4051230;29;21024;-83
2024/03/31 00:23:14;;;;;;;23.03;10.83;;;;;;;10.80;96.21;96539.03;4081189;29;20684;-83
2024/03/31 00:25:17;;;;;;;24.80;12.57;;;;;;;10.79;94.82;96540.78;4050643;29;20639;-83
2024/03/31 00:27:18;;;;;;;23.03;11.07;;;;;;;10.76;95.09;96555.91;4062505;29;20649;-83
2024/03/31 00:29:21;;;;;;;28.37;11.00;;;;;;;10.73;95.40;96549.19;4046980;29;20621;-83
2024/03/31 00:31:24;;;;;;;16.93;10.13;;;;;;;10.72;95.75;96557.16;4075929;29;20626;-83
2024/03/31 00:33:26;;;;;;;20.37;9.30;;;;;;;10.72;95.65;96560.59;4076383;29;20693;-84
2024/03/31 00:35:28;;;;;;;24.80;9.70;;;;;;;10.69;95.59;96553.06;4080632;28;21380;-83
2024/03/31 00:37:30;;;;;;;23.60;9.87;;;;;;;10.70;96.10;96559.91;4065039;29;20698;-83
2024/03/31 00:39:33;;;;;;;17.30;9.20;;;;;;;10.74;96.53;96563.06;4077507;29;20648;-83
2024/03/31 00:41:35;;;;;;;17.73;8.30;;;;;;;10.75;96.74;96565.53;4059929;29;20674;-83
2024/03/31 00:43:37;;;;;;;21.37;9.50;;;;;;;10.77;96.85;96574.03;4081533;29;21181;-82
2024/03/31 00:45:41;;;;;;;22.97;8.80;;;;;;;10.79;96.77;96579.09;4049359;29;20660;-83
2024/03/31 00:47:44;;;;;;;24.97;10.03;;;;;;;10.80;95.89;96579.75;4056286;29;21204;-83
2024/03/31 00:49:45;;;;;;;21.63;8.47;;;;;;;10.82;96.63;96593.50;4074954;29;20694;-84
2024/03/31 00:51:47;;;;;;;24.13;10.27;;;;;;;10.89;96.67;96594.56;4082109;28;20758;-83
2024/03/31 00:53:49;;;;;;;19.47;7.70;;;;;;;10.95;95.79;96601.00;4050434;29;20200;-84
2024/03/31 00:55:51;;;;;;;16.43;7.93;;;;;;;11.00;96.88;96611.81;4064293;29;21054;-83
2024/03/31 00:57:52;;;;;;;16.83;6.93;;;;;;;11.00;97.22;96612.63;4075135;29;20634;-83
2024/03/31 00:59:54;;;;;;;19.93;8.50;;;;;;;11.00;96.20;96617.84;4067449;29;21381;-83
2024/03/31 01:01:57;;;;;;;20.47;9.60;;;;;;;11.02;95.86;96620.31;4058036;29;20635;-83
2024/03/31 01:04:00;;;;;;;19.90;7.10;;;;;;;11.03;96.05;96612.34;4031148;29;20736;-84
2024/03/31 01:06:08;;;;;;;23.20;8.40;;;;;;;11.08;95.80;96610.13;4073085;29;20651;-84
2024/03/31 01:08:11;;;;;;;19.47;8.87;;;;;;;11.08;95.70;96607.53;4046096;29;20631;-83
2024/03/31 01:10:13;;;;;;;18.60;7.07;;;;;;;11.11;96.09;96593.34;4060517;29;20630;-83
2024/03/31 01:12:16;;;;;;;17.07;7.10;;;;;;;11.15;96.24;96589.50;4084122;29;20614;-83
2024/03/31 01:14:19;;;;;;;18.53;7.57;;;;;;;11.15;96.16;96581.69;4041874;29;20625;-83
2024/03/31 01:16:22;;;;;;;16.87;7.70;;;;;;;11.18;96.62;96576.97;4092359;28;20691;-83
2024/03/31 01:18:24;;;;;;;18.10;8.00;;;;;;;11.20;94.95;96580.28;4080945;29;20733;-83
2024/03/31 01:20:27;;;;;;;26.07;9.57;;;;;;;11.19;95.68;96585.66;4067154;29;20782;-82
2024/03/31 01:22:29;;;;;;;16.77;7.90;;;;;;;11.18;95.80;96579.59;4064989;29;20628;-83
2024/03/31 01:24:33;;;;;;;19.10;7.87;;;;;;;11.18;96.40;96586.59;4060394;29;20694;-83
2024/03/31 01:26:36;;;;;;;14.60;7.23;;;;;;;11.16;96.06;96586.75;4082710;29;21199;-82
2024/03/31 01:28:39;;;;;;;16.50;7.40;;;;;;;11.14;96.33;96572.19;4060024;29;20623;-83
2024/03/31 01:30:43;;;;;;;20.53;9.23;;;;;;;11.11;96.26;96562.03;4055665;29;20727;-83
2024/03/31 01:32:46;;;;;;;19.63;8.50;;;;;;;11.12;95.84;96561.91;4078738;29;20761;-84
2024/03/31 01:34:49;;;;;;;19.73;7.97;;;;;;;11.12;97.33;96559.28;4074105;28;20635;-83
2024/03/31 01:36:51;;;;;;;14.23;7.67;;;;;;;11.12;97.08;96558.47;4066698;29;21230;-83
2024/03/31 01:38:53;;;;;;;22.10;9.70;;;;;;;11.06;96.76;96554.66;4068080;29;21023;-82
2024/03/31 01:40:57;;;;;;;20.50;8.20;;;;;;;11.06;97.16;96559.06;4055175;29;20763;-83
2024/03/31 01:42:59;;;;;;;22.10;7.93;;;;;;;11.06;97.22;96553.84;4083963;29;21195;-84
2024/03/31 01:45:01;;;;;;;21.37;7.93;;;;;;;11.09;96.52;96556.16;4083007;29;20717;-83
2024/03/31 01:47:04;;;;;;;27.43;8.83;;;;;;;11.08;96.07;96560.56;4080287;29;20655;-83
2024/03/31 01:49:06;;;;;;;20.33;7.67;;;;;;;11.03;96.19;96549.72;4063182;29;20615;-82
2024/03/31 01:51:09;;;;;;;18.97;7.30;;;;;;;11.04;96.27;96553.19;4061228;29;20638;-83
2024/03/31 01:53:11;;;;;;;22.33;8.20;;;;;;;11.09;96.22;96550.94;4067822;29;20686;-84
2024/03/31 01:55:12;;;;;;;16.23;6.93;;;;;;;11.09;97.22;96553.56;4067399;29;20721;-83
2024/03/31 01:57:17;;;;;;;15.37;7.57;;;;;;;11.10;96.73;96558.63;4049389;29;20675;-84
2024/03/31 01:59:18;;;;;;;16.37;7.33;;;;;;;11.11;96.05;96562.88;4082475;29;20666;-83
2024/03/31 02:01:21;;;;;;;15.43;7.67;;;;;;;11.14;97.43;96560.00;4074364;29;20760;-83
2024/03/31 02:03:23;;;;;;;27.00;8.90;;;;;;;11.14;97.74;96549.56;4033862;29;20656;-83
2024/03/31 02:05:26;;;;;;;31.33;9.23;;;;;;;11.15;96.96;96545.16;4082907;28;21097;-83
2024/03/31 02:07:28;;;;;;;15.83;7.10;;;;;;;11.14;97.35;96548.72;4072664;29;20623;-84
2024/03/31 02:09:30;;;;;;;18.63;7.10;;;;;;;11.13;95.58;96547.91;4063126;29;21043;-84
2024/03/31 02:11:32;;;;;;;17.57;7.27;;;;;;;11.10;97.32;96561.22;4036908;29;20637;-83
2024/03/31 02:13:36;;;;;;;17.50;7.47;;;;;;;11.10;96.22;96561.22;4054137;29;20631;-83
2024/03/31 02:15:43;;;;;;;23.97;8.03;;;;;;;11.10;97.36;96570.88;4072883;29;20646;-83
2024/03/31 02:17:46;;;;;;;15.60;7.10;;;;;;;11.09;96.50;96561.38;4066731;29;20641;-83
2024/03/31 02:19:48;;;;;;;16.70;7.20;;;;;;;11.09;96.24;96549.16;4073490;29;20630;-83
2024/03/31 02:21:51;;;;;;;21.80;7.00;;;;;;;11.09;95.74;96545.72;4058043;29;20783;-83
2024/03/31 02:23:53;;;;;;;21.67;7.17;;;;;;;11.06;96.39;96541.63;4059527;29;21046;-83
2024/03/31 02:25:55;;;;;;;18.00;6.40;;;;;;;11.05;96.79;96547.81;4071318;29;20635;-83
2024/03/31 02:27:57;;;;;;;21.43;7.33;;;;;;;11.04;96.31;96548.78;4057713;29;21024;-83
2024/03/31 02:30:02;;;;;;;22.87;9.93;;;;;;;11.03;97.32;96552.34;4042839;29;21217;-83
2024/03/31 02:32:05;;;;;;;19.33;7.33;;;;;;;11.05;97.67;96553.03;4063064;29;20773;-83
2024/03/31 02:34:08;;;;;;;19.50;7.33;;;;;;;11.04;97.29;96546.16;4050046;29;20726;-84
2024/03/31 02:36:10;;;;;;;16.20;8.03;;;;;;;11.06;97.59;96543.41;4066711;29;21090;-83
2024/03/31 02:38:12;;;;;;;18.57;8.67;;;;;;;11.05;96.58;96534.78;4063488;29;20718;-83
2024/03/31 02:40:14;;;;;;;22.37;7.07;;;;;;;11.07;97.05;96535.44;4070485;28;20633;-83
2024/03/31 02:42:17;;;;;;;23.93;7.90;;;;;;;11.06;96.34;96515.53;4084783;28;20632;-83
2024/03/31 02:44:22;;;;;;;14.43;7.20;;;;;;;11.05;95.93;96507.84;4050265;29;20650;-83
2024/03/31 02:46:28;;;;;;;16.80;6.80;;;;;;;11.03;97.08;96494.94;4075386;29;20634;-83
2024/03/31 02:48:32;;;;;;;13.87;7.27;;;;;;;11.00;96.80;96482.19;4062874;29;20628;-83
2024/03/31 02:50:35;;;;;;;19.47;8.57;;;;;;;11.01;96.79;96470.00;4074920;29;21719;-84
2024/03/31 02:52:36;;;;;;;22.77;7.80;;;;;;;11.01;96.43;96465.59;4079106;29;20642;-83
2024/03/31 02:54:39;;;;;;;19.07;7.00;;;;;;;11.03;97.31;96445.38;4064116;29;20614;-83
2024/03/31 02:56:41;;;;;;;21.30;8.07;;;;;;;11.03;96.09;96440.16;4061148;29;20629;-83
2024/03/31 02:58:44;;;;;;;18.67;7.30;;;;;;;11.06;95.76;96449.50;4045416;29;20628;-83
2024/03/31 03:00:45;;;;;;;17.83;6.90;;;;;;;11.09;96.31;96450.00;4066813;29;20651;-84
2024/03/31 03:02:50;;;;;;;20.97;7.80;;;;;;;11.10;97.30;96453.47;4076967;29;20604;-84
2024/03/31 03:04:52;;;;;;;15.60;6.60;;;;;;;11.08;96.58;96466.66;4051755;29;20628;-83
2024/03/31 03:06:55;;;;;;;16.30;6.30;;;;;;;11.08;97.06;96469.25;4066499;29;21424;-83
2024/03/31 03:08:58;;;;;;;17.20;8.30;;;;;;;11.11;95.60;96491.59;4060857;29;20631;-83
2024/03/31 03:11:00;;;;;;;14.53;6.80;;;;;;;11.12;96.20;96494.06;4059495;29;20677;-83
2024/03/31 03:13:03;;;;;;;19.73;7.83;;;;;;;11.13;95.87;96498.31;4067053;29;20625;-83
2024/03/31 03:15:05;;;;;;;18.83;8.40;;;;;;;11.14;96.68;96510.41;4064564;29;21054;-83
2024/03/31 03:17:08;;;;;;;16.90;7.70;;;;;;;10.97;95.92;96513.78;4067290;29;20686;-83
2024/03/31 03:19:12;;;;;;;20.67;9.20;;;;;;;10.75;96.90;96512.53;4065721;29;20627;-84
2024/03/31 03:21:15;;;;;;;21.20;8.03;;;;;;;10.56;97.41;96504.81;4074494;29;21026;-83
2024/03/31 03:23:16;;;;;;;21.33;8.03;;;;;;;10.54;97.76;96494.53;4083738;28;20658;-83
2024/03/31 03:25:18;;;;;;;19.50;8.03;;;;;;;10.56;97.60;96495.19;4066128;29;20623;-84
2024/03/31 03:27:20;;;;;;;17.70;8.30;;;;;;;10.58;97.87;96492.44;4056237;29;20641;-84
2024/03/31 03:29:23;;;;;;;24.40;12.00;;;;;;;10.57;98.15;96491.63;4063107;29;20631;-83
2024/03/31 03:31:25;;;;;;;19.23;10.10;;;;;;;10.56;97.53;96483.97;4079238;29;20738;-83
2024/03/31 03:33:26;;;;;;;19.60;10.00;;;;;;;10.51;97.32;96467.94;4080066;29;21555;-83
2024/03/31 03:35:37;;;;;;;19.10;11.00;;;;;;;10.43;97.62;96449.56;4065100;29;20694;-83
2024/03/31 03:37:43;;;;;;;18.80;7.67;;;;;;;10.38;98.06;96457.81;4073789;29;20622;-83
2024/03/31 03:39:47;;;;;;;11.53;7.27;;;;;;;10.36;97.19;96469.38;4079548;29;20670;-83
2024/03/31 03:41:49;;;;;;;18.43;7.90;;;;;;;10.32;97.17;96467.19;4083685;29;20702;-84
2024/03/31 03:43:53;;;;;;;15.37;8.17;;;;;;;10.32;96.90;96467.19;4065619;29;20615;-83
2024/03/31 03:45:54;;;;;;;14.87;7.30;;;;;;;10.33;96.79;96472.28;4065382;29;21209;-83
2024/03/31 03:47:57;;;;;;;16.53;8.90;;;;;;;10.34;97.26;96466.91;4066671;29;20615;-83
2024/03/31 03:49:58;;;;;;;18.27;8.33;;;;;;;10.39;97.06;96453.47;4065611;29;20643;-83
2024/03/31 03:52:04;;;;;;;20.33;8.30;;;;;;;10.41;98.13;96452.31;4062166;29;20722;-83
2024/03/31 03:54:06;;;;;;;14.67;7.83;;;;;;;10.40;97.43;96461.13;4049505;29;20644;-83
2024/03/31 03:56:08;;;;;;;22.67;9.30;;;;;;;10.37;97.06;96450.16;4038163;29;20659;-83
2024/03/31 03:58:10;;;;;;;17.87;7.47;;;;;;;10.35;96.84;96457.31;4038730;29;20629;-83
2024/03/31 04:00:13;;;;;;;21.57;8.57;;;;;;;10.36;96.98;96464.16;4046448;29;20628;-83
2024/03/31 04:02:20;;;;;;;34.30;17.43;;;;;;;10.39;97.75;96463.88;4047625;29;20672;-84
2024/03/31 04:04:23;;;;;;;27.10;14.67;;;;;;;10.41;97.43;96462.75;4062054;29;20649;-83
2024/03/31 04:06:24;;;;;;;23.60;13.13;;;;;;;10.42;97.01;96455.78;4066549;29;20662;-83
2024/03/31 04:08:28;;;;;;;24.73;13.63;;;;;;;10.44;97.28;96467.69;4078048;29;20641;-83
2024/03/31 04:10:30;;;;;;;19.17;10.90;;;;;;;10.42;97.12;96463.59;4072731;29;20627;-83
2024/03/31 04:12:31;;;;;;;22.87;10.80;;;;;;;10.40;97.29;96474.16;4076421;29;20634;-84
2024/03/31 04:14:34;;;;;;;19.93;10.97;;;;;;;10.35;97.20;96472.94;4045507;29;20634;-83
2024/03/31 04:16:35;;;;;;;22.70;9.97;;;;;;;10.31;95.80;96474.19;4087361;28;20630;-83
2024/03/31 04:18:37;;;;;;;16.83;10.10;;;;;;;10.28;96.67;96469.25;4047615;29;20636;-83
2024/03/31 04:20:41;;;;;;;21.07;10.30;;;;;;;10.24;95.89;96469.66;4082084;29;21172;-83
2024/03/31 04:22:43;;;;;;;22.30;9.77;;;;;;;10.22;96.22;96472.41;4047156;29;20620;-83
2024/03/31 04:24:46;;;;;;;17.70;9.27;;;;;;;10.18;95.50;96455.44;4055467;29;20628;-83
2024/03/31 04:26:49;;;;;;;19.60;9.27;;;;;;;10.09;94.99;96452.88;4050353;29;20628;-84
2024/03/31 04:28:50;;;;;;;24.37;8.47;;;;;;;10.00;95.02;96451.94;4058296;29;20653;-83
2024/03/31 04:30:53;;;;;;;17.90;6.77;;;;;;;9.93;94.67;96445.66;4081696;29;20708;-83
2024/03/31 04:32:54;;;;;;;14.70;6.67;;;;;;;9.87;94.62;96443.56;4067265;29;21596;-83
2024/03/31 04:34:56;;;;;;;13.17;7.03;;;;;;;9.85;94.58;96449.91;4075629;29;20635;-83
2024/03/31 04:36:58;;;;;;;18.73;7.60;;;;;;;9.83;95.51;96451.00;4062172;29;20660;-83
2024/03/31 04:38:59;;;;;;;20.10;8.13;;;;;;;9.84;96.53;96457.84;4074059;29;20626;-83
2024/03/31 04:41:04;;;;;;;14.63;6.50;;;;;;;9.82;96.57;96464.97;4060213;29;20746;-83
2024/03/31 04:43:06;;;;;;;23.13;8.00;;;;;;;9.79;95.58;96473.03;4084878;29;20649;-83
2024/03/31 04:45:11;;;;;;;16.70;8.20;;;;;;;9.76;95.73;96484.56;4074399;29;21333;-83
2024/03/31 04:47:12;;;;;;;18.40;7.30;;;;;;;9.76;95.20;96483.72;4068447;29;20730;-83
2024/03/31 04:49:15;;;;;;;19.20;7.57;;;;;;;9.70;95.58;96490.34;4079346;29;20626;-83
2024/03/31 04:51:17;;;;;;;18.30;8.10;;;;;;;9.69;95.63;96490.47;4078161;29;20665;-83
2024/03/31 04:53:20;;;;;;;18.90;8.13;;;;;;;9.67;95.34;96495.00;4048367;29;20626;-83
2024/03/31 04:55:21;;;;;;;17.27;7.47;;;;;;;9.65;95.12;96502.09;4053250;29;20660;-83
2024/03/31 04:57:25;;;;;;;16.33;7.73;;;;;;;9.59;95.22;96495.69;4057433;29;20658;-83
2024/03/31 04:59:26;;;;;;;15.53;6.47;;;;;;;9.51;96.75;96486.94;4056418;29;21618;-83
2024/03/31 05:01:28;;;;;;;18.00;7.20;;;;;;;9.34;97.20;96477.22;4071599;29;20754;-82
2024/03/31 05:03:29;;;;;;;26.33;8.63;;;;;;;9.27;96.09;96481.31;4084407;28;20657;-83
2024/03/31 05:05:37;;;;;;;15.80;7.27;;;;;;;9.19;94.62;96494.16;4062172;29;20671;-83
2024/03/31 05:07:38;;;;;;;12.70;6.80;;;;;;;9.15;94.23;96491.97;4089835;28;20636;-83
2024/03/31 05:09:41;;;;;;;12.73;6.90;;;;;;;9.12;94.07;96485.25;4071772;29;20643;-83
2024/03/31 05:11:42;;;;;;;11.47;6.70;;;;;;;9.15;95.32;96492.78;4066998;29;20626;-83
2024/03/31 05:13:46;;;;;;;26.03;7.40;;;;;;;9.20;95.28;96498.44;4036929;29;21195;-83
2024/03/31 05:15:58;;;;;;;18.13;6.83;;;;;;;9.25;95.69;96495.41;4075724;29;20679;-84
2024/03/31 05:18:00;;;;;;;20.30;5.70;;;;;;;9.29;95.91;96494.16;4057791;29;20634;-83
2024/03/31 05:20:02;;;;;;;14.03;6.27;;;;;;;9.36;96.06;96500.50;4077061;29;20729;-82
2024/03/31 05:22:04;;;;;;;24.03;6.20;;;;;;;9.45;96.45;96500.47;4062115;29;20834;-83
2024/03/31 05:24:06;;;;;;;17.90;6.60;;;;;;;9.54;97.05;96502.25;4066093;29;21204;-83
2024/03/31 05:26:14;;;;;;;16.37;6.20;;;;;;;9.60;97.54;96515.53;4081570;29;21196;-83
2024/03/31 05:28:19;;;;;;;20.10;7.10;;;;;;;9.64;97.29;96518.72;4072540;29;20622;-83
2024/03/31 05:30:23;;;;;;;14.83;6.00;;;;;;;9.70;97.63;96520.75;4078430;29;20634;-82
2024/03/31 05:32:25;;;;;;;13.50;5.50;;;;;;;9.76;97.22;96523.63;4060297;29;20666;-83
2024/03/31 05:34:56;;;;;;;14.33;5.67;;;;;;;9.84;97.50;96529.75;4067788;29;21209;-82
2024/03/31 05:36:59;;;;;;;11.80;5.87;;;;;;;9.90;97.17;96528.41;4063184;29;20658;-83
2024/03/31 05:39:01;;;;;;;13.10;7.33;;;;;;;9.86;95.65;96530.47;4080072;29;21211;-83
2024/03/31 05:41:03;;;;;;;16.73;7.67;;;;;;;9.81;94.74;96533.63;4064567;29;20622;-83
2024/03/31 05:43:06;;;;;;;20.37;7.43;;;;;;;9.81;94.77;96544.84;4084140;29;20652;-83
2024/03/31 05:45:08;;;;;;;20.27;7.43;;;;;;;9.84;94.64;96546.38;4077975;29;20635;-82
2024/03/31 05:47:12;;;;;;;21.80;6.53;;;;;;;9.87;94.49;96544.31;4039804;29;20664;-83
2024/03/31 05:49:14;;;;;;;20.63;6.90;;;;;;;9.91;95.03;96551.69;4036608;29;20730;-83
2024/03/31 05:51:18;;;;;;;12.40;6.43;;;;;;;9.97;95.05;96545.97;4048692;29;21006;-83
2024/03/31 05:53:24;;;;;;;10.13;4.37;;;;;;;10.06;95.79;96539.13;4080472;29;20638;-83
2024/03/31 05:55:28;;;;;;;21.00;7.63;;;;;;;10.22;95.09;96532.34;4054204;29;20641;-83
2024/03/31 05:57:30;;;;;;;15.67;6.30;;;;;;;10.29;94.18;96523.00;4078450;29;20619;-83
2024/03/31 05:59:32;;;;;;;21.93;8.53;;;;;;;10.28;93.88;96520.53;4079267;28;20677;-83
2024/03/31 06:01:35;;;;;;;13.50;6.53;;;;;;;10.24;94.21;96516.56;4083631;29;20653;-84
2024/03/31 06:03:38;;;;;;;17.10;6.30;;;;;;;10.19;94.39;96501.34;4067786;29;21019;-84
2024/03/31 06:05:40;;;;;;;16.07;6.33;;;;;;;10.17;94.21;96499.88;4091762;28;20630;-83
2024/03/31 06:07:47;;;;;;;16.43;6.13;;;;;;;10.17;94.88;96492.88;4083381;29;20677;-83
2024/03/31 06:09:48;;;;;;;18.20;7.40;;;;;;;10.18;94.67;96494.53;4074322;29;20626;-83
2024/03/31 06:11:52;;;;;;;23.23;7.13;;;;;;;10.24;95.20;96493.13;4063425;29;20631;-84
2024/03/31 06:13:53;;;;;;;14.90;6.40;;;;;;;10.28;94.59;96492.69;4080451;29;21192;-83
2024/03/31 06:15:56;;;;;;;22.27;6.60;;;;;;;10.29;93.94;96490.94;4080586;28;20630;-83
2024/03/31 06:17:57;;;;;;;13.53;6.80;;;;;;;10.28;94.46;96495.31;4049167;29;20647;-83
2024/03/31 06:20:01;;;;;;;15.63;7.23;;;;;;;10.28;93.90;96484.88;4074472;29;20706;-83
2024/03/31 06:22:02;;;;;;;13.90;6.43;;;;;;;10.27;94.90;96483.25;4062939;29;21276;-83
2024/03/31 06:24:06;;;;;;;16.70;6.73;;;;;;;10.29;94.41;96473.50;4056100;29;20631;-83
2024/03/31 06:26:10;;;;;;;20.23;6.70;;;;;;;10.30;94.19;96464.75;4055434;29;20647;-83
2024/03/31 06:28:13;;;;;;;14.63;6.90;;;;;;;10.34;94.49;96464.31;4063310;29;20736;-83
2024/03/31 06:30:15;;;;;;;20.33;7.00;;;;;;;10.38;94.31;96457.81;4083076;29;20729;-83
2024/03/31 06:32:17;;;;;;;15.27;6.57;;;;;;;10.37;94.10;96445.78;4076949;29;20658;-83
2024/03/31 06:34:19;;;;;;;18.90;7.00;;;;;;;10.41;94.60;96435.88;4045209;29;21216;-83
2024/03/31 06:36:23;;;;;;;16.03;6.50;;;;;;;10.53;94.96;96440.75;4052091;29;21228;-83
2024/03/31 06:38:24;;;;;;;14.90;6.90;;;;;;;10.68;93.96;96446.31;4082752;29;20750;-83
2024/03/31 06:40:28;;;;;;;13.13;7.13;;;;;;;10.73;94.62;96449.28;4073708;29;20698;-82
2024/03/31 06:42:29;;;;;;;19.60;7.80;;;;;;;10.78;94.85;96449.66;4078530;28;20722;-83
2024/03/31 06:44:32;;;;;;;15.77;7.07;;;;;;;10.87;94.40;96450.44;4063562;29;20640;-83
2024/03/31 06:46:33;;;;;;;12.83;5.97;;;;;;;11.00;94.68;96434.44;4061084;29;20679;-83
2024/03/31 06:48:36;;;;;;;18.63;6.73;;;;;;;11.11;93.91;96436.81;4072394;29;20635;-83
2024/03/31 06:50:37;;;;;;;15.80;7.00;;;;;;;11.31;93.56;96433.94;4066828;29;20627;-83
2024/03/31 06:52:41;;;;;;;18.97;6.73;;;;;;;11.61;95.37;96430.97;4066244;29;21005;-83
2024/03/31 06:54:43;;;;;;;13.30;6.20;;;;;;;11.91;93.16;96439.97;4064588;29;20627;-83
2024/03/31 06:56:46;;;;;;;17.20;6.33;;;;;;;12.23;92.18;96448.03;4045544;29;20677;-83
2024/03/31 06:58:47;;;;;;;17.37;6.77;;;;;;;12.49;91.53;96443.56;4075539;29;21197;-83
2024/03/31 07:00:57;;;;;;;16.47;7.27;;;;;;;12.68;91.30;96446.78;4064476;29;20706;-83
2024/03/31 07:03:00;;;;;;;15.50;6.20;;;;;;;12.85;90.97;96451.94;4035495;29;20648;-83
2024/03/31 07:05:04;;;;;;;14.40;5.50;;;;;;;13.14;91.50;96456.75;4031846;29;20637;-83
2024/03/31 07:07:07;;;;;;;19.60;5.57;;;;;;;13.39;90.10;96469.72;4089258;28;21066;-82
2024/03/31 07:09:11;;;;;;;17.43;5.70;;;;;;;13.55;89.50;96465.34;4062943;29;20677;-82
2024/03/31 07:11:15;;;;;;;14.30;6.43;;;;;;;13.60;90.27;96467.47;4066774;29;20799;-83
2024/03/31 07:13:17;;;;;;;14.70;6.00;;;;;;;13.61;90.55;96479.59;4069033;29;20716;-83
2024/03/31 07:15:20;;;;;;;17.37;8.33;;;;;;;13.67;90.75;96464.84;4082631;29;20701;-83
2024/03/31 07:17:22;;;;;;;29.23;8.37;;;;;;;13.86;91.57;96472.41;4051172;29;20724;-83
2024/03/31 07:19:23;;;;;;;14.30;5.93;;;;;;;13.81;89.72;96460.75;4036623;29;20634;-83
2024/03/31 07:21:26;;;;;;;14.23;5.87;;;;;;;13.92;89.85;96466.50;4076949;29;20693;-84
2024/03/31 07:23:27;;;;;;;13.90;6.40;;;;;;;14.18;87.99;96461.91;4049848;29;20618;-83
2024/03/31 07:25:31;;;;;;;16.73;6.50;;;;;;;14.27;88.20;96459.09;4081915;29;21086;-83
2024/03/31 07:27:32;;;;;;;21.70;7.60;;;;;;;14.27;87.01;96453.03;4074742;29;20694;-84
2024/03/31 07:29:35;;;;;;;12.80;6.87;;;;;;;14.34;86.76;96448.75;4034430;29;21033;-83
2024/03/31 07:31:36;;;;;;;16.23;7.17;;;;;;;14.42;86.89;96435.63;4052185;29;20664;-83
2024/03/31 07:33:38;;;;;;;20.10;7.03;;;;;;;14.42;86.49;96440.88;4075361;29;20620;-83
2024/03/31 07:35:41;;;;;;;12.33;6.33;;;;;;;14.40;86.81;96440.22;4058265;29;20629;-83
2024/03/31 07:37:43;;;;;;;20.97;8.00;;;;;;;14.51;87.10;96450.34;4066892;29;20627;-83
2024/03/31 07:39:45;;;;;;;15.93;8.30;;;;;;;14.67;87.92;96454.56;4064464;29;20677;-83
2024/03/31 07:41:48;;;;;;;15.23;7.77;;;;;;;14.95;88.76;96461.00;4077804;28;20639;-82
2024/03/31 07:43:51;;;;;;;17.50;6.60;;;;;;;15.26;86.58;96467.94;4069913;29;20697;-83
2024/03/31 07:45:53;;;;;;;19.40;6.20;;;;;;;15.51;84.81;96463.34;4035674;29;21029;-84
2024/03/31 07:47:54;;;;;;;16.70;5.60;;;;;;;15.70;83.41;96464.50;4081421;29;20633;-83
2024/03/31 07:49:57;;;;;;;15.40;4.27;;;;;;;15.87;83.08;96465.22;4063164;29;20623;-83
2024/03/31 07:51:58;;;;;;;15.30;4.33;;;;;;;15.91;81.22;96456.78;4077243;29;20677;-84
2024/03/31 07:54:01;;;;;;;14.07;4.30;;;;;;;15.98;80.51;96447.19;4066664;29;20707;-84
2024/03/31 07:56:04;;;;;;;8.97;3.47;;;;;;;16.13;81.89;96442.78;4060615;29;20642;-83
2024/03/31 07:58:08;;;;;;;9.67;2.80;;;;;;;16.45;77.48;96448.56;4080117;28;20629;-83
2024/03/31 08:00:11;;;;;;;10.90;3.73;;;;;;;16.67;76.97;96439.75;4066063;29;20652;-83
2024/03/31 08:02:16;;;;;;;13.50;5.40;;;;;;;16.79;76.98;96446.19;4050444;29;20654;-84
2024/03/31 08:04:17;;;;;;;15.50;4.80;;;;;;;16.74;80.83;96441.47;4077454;29;20626;-84
2024/03/31 08:06:19;;;;;;;19.53;4.13;;;;;;;17.07;78.88;96437.47;4066379;29;20635;-84
2024/03/31 08:08:21;;;;;;;14.33;4.40;;;;;;;17.22;78.30;96425.09;4065970;29;20642;-84
2024/03/31 08:10:22;;;;;;;22.97;4.47;;;;;;;17.32;77.16;96436.97;4076495;29;20640;-83
2024/03/31 08:12:25;;;;;;;11.57;3.60;;;;;;;17.24;75.25;96421.25;4064246;29;20678;-83
2024/03/31 08:14:28;;;;;;;7.80;3.67;;;;;;;17.24;77.38;96423.91;4035133;29;21249;-83
2024/03/31 08:16:30;;;;;;;19.63;4.10;;;;;;;17.49;79.69;96425.19;4078790;29;21008;-84
2024/03/31 08:18:32;;;;;;;16.07;3.60;;;;;;;17.42;76.48;96412.94;4081503;29;20628;-83
2024/03/31 08:20:35;;;;;;;12.70;4.00;;;;;;;17.37;75.75;96405.59;4048950;29;20635;-84
2024/03/31 08:22:37;;;;;;;13.97;4.33;;;;;;;17.54;77.66;96401.72;4092928;28;21319;-83
2024/03/31 08:24:39;;;;;;;21.00;4.40;;;;;;;17.79;76.31;96418.78;4085240;29;20621;-83
2024/03/31 08:26:41;;;;;;;18.57;4.20;;;;;;;17.89;74.03;96425.38;4042396;29;20628;-83
2024/03/31 08:28:43;;;;;;;12.10;3.00;;;;;;;17.94;73.80;96418.50;4078391;28;20686;-83
2024/03/31 08:30:47;;;;;;;10.53;2.90;;;;;;;17.92;74.43;96425.81;4083634;29;20629;-84
2024/03/31 08:32:49;;;;;;;8.00;2.40;;;;;;;17.62;73.21;96423.50;4084815;28;20670;-83
2024/03/31 08:34:51;;;;;;;15.33;3.07;;;;;;;17.45;74.56;96421.28;4053114;29;20706;-83
2024/03/31 08:36:52;;;;;;;8.30;2.57;;;;;;;17.59;74.61;96423.88;4053930;29;20632;-83
2024/03/31 08:38:54;;;;;;;7.20;2.70;;;;;;;17.73;73.28;96419.53;4077303;29;20665;-84
2024/03/31 08:40:59;;;;;;;9.73;2.50;;;;;;;17.58;74.20;96421.44;4053142;29;20646;-84
2024/03/31 08:43:05;;;;;;;6.60;2.17;;;;;;;17.52;73.48;96428.25;4067170;29;20654;-83
2024/03/31 08:45:10;;;;;;;13.07;2.77;;;;;;;17.57;73.66;96412.69;4076620;29;20715;-83
2024/03/31 08:47:19;;;;;;;11.90;2.90;;;;;;;17.66;72.81;96408.91;4064903;29;20634;-83
2024/03/31 08:49:21;;;;;;;10.10;2.17;;;;;;;17.78;73.49;96407.41;4080923;29;20652;-83
2024/03/31 08:51:23;;;;;;;9.50;3.13;;;;;;;17.93;71.24;96408.16;4079725;29;21266;-83
2024/03/31 08:53:25;;;;;;;8.83;2.10;;;;;;;18.02;71.78;96413.09;4067603;29;20627;-83
2024/03/31 08:55:28;;;;;;;8.07;2.93;;;;;;;18.02;70.83;96396.44;4082244;28;21200;-83
2024/03/31 08:57:30;;;;;;;9.00;2.50;;;;;;;17.99;70.93;96394.19;4063811;29;20621;-83
2024/03/31 08:59:32;;;;;;;9.03;2.37;;;;;;;17.79;72.60;96403.78;4064360;29;20686;-83
2024/03/31 09:01:35;;;;;;;11.83;2.67;;;;;;;17.47;70.96;96390.31;4065743;29;20643;-83
2024/03/31 09:03:39;;;;;;;12.60;2.60;;;;;;;17.21;71.05;96391.84;4066057;29;20662;-84
2024/03/31 09:05:41;;;;;;;12.80;2.57;;;;;;;17.04;71.01;96385.13;4078039;28;20672;-83
2024/03/31 09:07:43;;;;;;;10.60;2.90;;;;;;;17.00;72.23;96394.41;4063855;29;20627;-82
2024/03/31 09:09:45;;;;;;;15.67;3.73;;;;;;;17.21;72.71;96389.19;4067095;29;20674;-83
2024/03/31 09:11:47;;;;;;;11.00;2.53;;;;;;;17.61;72.73;96394.69;4079600;29;21183;-83
2024/03/31 09:13:49;;;;;;;12.60;2.90;;;;;;;17.86;71.81;96395.91;4036294;29;20664;-83
2024/03/31 09:15:51;;;;;;;7.80;2.50;;;;;;;18.05;73.09;96393.44;4080524;29;21135;-83
2024/03/31 09:17:54;;;;;;;9.80;2.50;;;;;;;17.81;71.59;96385.91;4062952;29;20803;-83
2024/03/31 09:19:57;;;;;;;13.30;2.93;;;;;;;17.40;71.29;96370.16;4064326;29;21076;-83
2024/03/31 09:21:59;;;;;;;11.53;2.57;;;;;;;17.20;71.50;96369.06;4062562;29;20622;-83
2024/03/31 09:24:02;;;;;;;15.53;3.07;;;;;;;16.90;72.09;96351.75;4068400;29;20674;-83
2024/03/31 09:26:04;;;;;;;13.40;2.50;;;;;;;16.74;73.25;96351.97;4083873;29;20660;-83
2024/03/31 09:28:07;;;;;;;19.10;2.80;;;;;;;16.78;74.02;96358.50;4093823;28;20773;-83
2024/03/31 09:30:08;;;;;;;11.87;3.03;;;;;;;16.81;74.27;96357.28;4089735;28;20691;-83
2024/03/31 09:32:13;;;;;;;12.73;2.87;;;;;;;16.89;74.81;96344.84;4074971;29;20711;-83